sensor_id;sensor_type;location;lat;lon;timestamp;temperature;humidity
45619;DHT22;31343;47.520;19.144;2022-12-01T00:00:35;4.90;99.90
45619;DHT22;31343;47.520;19.144;2022-12-01T00:03:01;4.90;99.90
45619;DHT22;31343;47.520;19.144;2022-12-01T00:05:27;4.90;99.90
45619;DHT22;31343;47.520;19.144;2022-12-01T00:07:53;5.00;99.90
45619;DHT22;31343;47.520;19.144;2022-12-01T00:10:19;4.90;99.90
45619;DHT22;31343;47.520;19.144;2022-12-01T00:12:55;4.80;99.90
45619;DHT22;31343;47.520;19.144;2022-12-01T00:15:25;4.60;99.90
45619;DHT22;31343;47.520;19.144;2022-12-01T00:17:51;4.50;99.90
45619;DHT22;31343;47.520;19.144;2022-12-01T00:20:17;4.50;99.90
45619;DHT22;31343;47.520;19.144;2022-12-01T00:22:44;4.40;99.90
45619;DHT22;31343;47.520;19.144;2022-12-01T00:25:11;4.40;99.90
45619;DHT22;31343;47.520;19.144;2022-12-01T00:27:37;4.30;99.90
45619;DHT22;31343;47.520;19.144;2022-12-01T00:30:04;4.30;99.90
45619;DHT22;31343;47.520;19.144;2022-12-01T00:32:30;4.20;99.90
45619;DHT22;31343;47.520;19.144;2022-12-01T00:34:56;4.20;99.90
45619;DHT22;31343;47.520;19.144;2022-12-01T00:37:22;4.00;99.90
45619;DHT22;31343;47.520;19.144;2022-12-01T00:39:48;4.00;99.90
45619;DHT22;31343;47.520;19.144;2022-12-01T00:42:13;4.10;99.90
45619;DHT22;31343;47.520;19.144;2022-12-01T00:44:39;4.00;99.90
45619;DHT22;31343;47.520;19.144;2022-12-01T00:47:05;4.00;99.90
45619;DHT22;31343;47.520;19.144;2022-12-01T00:49:30;4.00;99.90
45619;DHT22;31343;47.520;19.144;2022-12-01T00:51:56;4.00;99.90
45619;DHT22;31343;47.520;19.144;2022-12-01T00:54:22;3.80;99.90
45619;DHT22;31343;47.520;19.144;2022-12-01T00:56:48;3.60;99.90
45619;DHT22;31343;47.520;19.144;2022-12-01T00:59:14;3.60;99.90
45619;DHT22;31343;47.520;19.144;2022-12-01T01:01:39;3.60;99.90
45619;DHT22;31343;47.520;19.144;2022-12-01T01:04:05;3.60;99.90
45619;DHT22;31343;47.520;19.144;2022-12-01T01:06:31;3.50;99.90
45619;DHT22;31343;47.520;19.144;2022-12-01T01:08:57;3.50;99.90
45619;DHT22;31343;47.520;19.144;2022-12-01T01:11:24;3.50;99.90
45619;DHT22;31343;47.520;19.144;2022-12-01T01:13:50;3.40;99.90
45619;DHT22;31343;47.520;19.144;2022-12-01T01:16:18;3.40;99.90
45619;DHT22;31343;47.520;19.144;2022-12-01T01:18:44;3.30;99.90
45619;DHT22;31343;47.520;19.144;2022-12-01T01:21:13;3.30;99.90
45619;DHT22;31343;47.520;19.144;2022-12-01T01:23:40;3.40;99.90
45619;DHT22;31343;47.520;19.144;2022-12-01T01:26:17;3.40;99.90
45619;DHT22;31343;47.520;19.144;2022-12-01T01:28:44;3.50;99.90
45619;DHT22;31343;47.520;19.144;2022-12-01T01:31:13;3.50;99.90
45619;DHT22;31343;47.520;19.144;2022-12-01T01:33:39;3.40;99.90
45619;DHT22;31343;47.520;19.144;2022-12-01T01:36:06;3.40;99.90
45619;DHT22;31343;47.520;19.144;2022-12-01T01:38:32;3.40;99.90
45619;DHT22;31343;47.520;19.144;2022-12-01T01:40:58;3.40;99.90
45619;DHT22;31343;47.520;19.144;2022-12-01T01:46:20;3.20;99.90
45619;DHT22;31343;47.520;19.144;2022-12-01T01:51:29;3.00;99.90
45619;DHT22;31343;47.520;19.144;2022-12-01T01:54:10;3.00;99.90
45619;DHT22;31343;47.520;19.144;2022-12-01T01:56:41;3.00;99.90
45619;DHT22;31343;47.520;19.144;2022-12-01T01:59:09;2.80;99.90
45619;DHT22;31343;47.520;19.144;2022-12-01T02:01:36;2.70;99.90
45619;DHT22;31343;47.520;19.144;2022-12-01T02:04:02;2.70;99.90
45619;DHT22;31343;47.520;19.144;2022-12-01T02:06:28;2.70;99.90
45619;DHT22;31343;47.520;19.144;2022-12-01T02:08:53;2.80;99.90
45619;DHT22;31343;47.520;19.144;2022-12-01T02:11:41;2.70;99.90
45619;DHT22;31343;47.520;19.144;2022-12-01T02:26:15;2.50;99.90
45619;DHT22;31343;47.520;19.144;2022-12-01T02:31:43;2.40;99.90
45619;DHT22;31343;47.520;19.144;2022-12-01T02:34:24;2.20;99.90
45619;DHT22;31343;47.520;19.144;2022-12-01T02:37:04;2.20;99.90
45619;DHT22;31343;47.520;19.144;2022-12-01T02:39:38;2.10;99.90
45619;DHT22;31343;47.520;19.144;2022-12-01T02:42:19;2.10;99.90
45619;DHT22;31343;47.520;19.144;2022-12-01T02:45:12;2.00;99.90
45619;DHT22;31343;47.520;19.144;2022-12-01T02:47:41;2.00;99.90
45619;DHT22;31343;47.520;19.144;2022-12-01T02:50:09;1.80;99.90
45619;DHT22;31343;47.520;19.144;2022-12-01T02:52:36;1.90;99.90
45619;DHT22;31343;47.520;19.144;2022-12-01T02:55:03;1.90;99.90
45619;DHT22;31343;47.520;19.144;2022-12-01T02:57:29;1.80;99.90
45619;DHT22;31343;47.520;19.144;2022-12-01T02:59:55;1.90;99.90
45619;DHT22;31343;47.520;19.144;2022-12-01T03:02:33;1.80;99.90
45619;DHT22;31343;47.520;19.144;2022-12-01T03:10:46;1.70;99.90
45619;DHT22;31343;47.520;19.144;2022-12-01T03:13:31;1.70;99.90
45619;DHT22;31343;47.520;19.144;2022-12-01T03:16:27;1.80;99.90
45619;DHT22;31343;47.520;19.144;2022-12-01T03:19:11;1.70;99.90
45619;DHT22;31343;47.520;19.144;2022-12-01T03:21:43;1.70;99.90
45619;DHT22;31343;47.520;19.144;2022-12-01T03:24:17;1.70;99.90
45619;DHT22;31343;47.520;19.144;2022-12-01T03:26:47;1.80;99.90
45619;DHT22;31343;47.520;19.144;2022-12-01T03:29:17;1.80;99.90
45619;DHT22;31343;47.520;19.144;2022-12-01T03:31:49;1.90;99.90
45619;DHT22;31343;47.520;19.144;2022-12-01T03:34:29;1.90;99.90
45619;DHT22;31343;47.520;19.144;2022-12-01T03:37:03;1.80;99.90
45619;DHT22;31343;47.520;19.144;2022-12-01T03:39:32;1.70;99.90
45619;DHT22;31343;47.520;19.144;2022-12-01T03:42:04;1.70;99.90
45619;DHT22;31343;47.520;19.144;2022-12-01T03:44:35;1.70;99.90
45619;DHT22;31343;47.520;19.144;2022-12-01T03:47:06;1.60;99.90
45619;DHT22;31343;47.520;19.144;2022-12-01T03:49:35;1.70;99.90
45619;DHT22;31343;47.520;19.144;2022-12-01T03:52:09;1.70;99.90
45619;DHT22;31343;47.520;19.144;2022-12-01T03:57:28;1.70;99.90
45619;DHT22;31343;47.520;19.144;2022-12-01T03:59:56;1.60;99.90
45619;DHT22;31343;47.520;19.144;2022-12-01T04:02:21;1.60;99.90
45619;DHT22;31343;47.520;19.144;2022-12-01T04:04:53;1.60;99.90
45619;DHT22;31343;47.520;19.144;2022-12-01T04:07:20;1.60;99.90
45619;DHT22;31343;47.520;19.144;2022-12-01T04:09:45;1.60;99.90
45619;DHT22;31343;47.520;19.144;2022-12-01T04:12:12;1.60;99.90
45619;DHT22;31343;47.520;19.144;2022-12-01T04:14:54;1.60;99.90
45619;DHT22;31343;47.520;19.144;2022-12-01T04:17:20;1.60;99.90
45619;DHT22;31343;47.520;19.144;2022-12-01T04:19:46;1.60;99.90
45619;DHT22;31343;47.520;19.144;2022-12-01T04:22:12;1.60;99.90
45619;DHT22;31343;47.520;19.144;2022-12-01T04:24:38;1.50;99.90
45619;DHT22;31343;47.520;19.144;2022-12-01T04:27:03;1.40;99.90
45619;DHT22;31343;47.520;19.144;2022-12-01T04:29:29;1.30;99.90
45619;DHT22;31343;47.520;19.144;2022-12-01T04:31:55;1.30;99.90
45619;DHT22;31343;47.520;19.144;2022-12-01T04:34:20;1.40;99.90
45619;DHT22;31343;47.520;19.144;2022-12-01T04:36:46;1.50;99.90
45619;DHT22;31343;47.520;19.144;2022-12-01T04:39:12;1.60;99.90
45619;DHT22;31343;47.520;19.144;2022-12-01T04:41:37;1.50;99.90
45619;DHT22;31343;47.520;19.144;2022-12-01T04:44:03;1.60;99.90
45619;DHT22;31343;47.520;19.144;2022-12-01T04:46:29;1.60;99.90
45619;DHT22;31343;47.520;19.144;2022-12-01T04:48:55;1.60;99.90
45619;DHT22;31343;47.520;19.144;2022-12-01T04:51:20;1.50;99.90
45619;DHT22;31343;47.520;19.144;2022-12-01T04:53:47;1.40;99.90
45619;DHT22;31343;47.520;19.144;2022-12-01T04:56:14;1.30;99.90
45619;DHT22;31343;47.520;19.144;2022-12-01T04:58:41;1.20;99.90
45619;DHT22;31343;47.520;19.144;2022-12-01T05:01:09;1.20;99.90
45619;DHT22;31343;47.520;19.144;2022-12-01T05:03:37;1.20;99.90
45619;DHT22;31343;47.520;19.144;2022-12-01T05:06:06;1.30;99.90
45619;DHT22;31343;47.520;19.144;2022-12-01T05:08:32;1.30;99.90
45619;DHT22;31343;47.520;19.144;2022-12-01T05:10:59;1.30;99.90
45619;DHT22;31343;47.520;19.144;2022-12-01T05:13:25;1.30;99.90
45619;DHT22;31343;47.520;19.144;2022-12-01T05:15:51;1.40;99.90
45619;DHT22;31343;47.520;19.144;2022-12-01T05:18:18;1.40;99.90
45619;DHT22;31343;47.520;19.144;2022-12-01T05:20:44;1.40;99.90
45619;DHT22;31343;47.520;19.144;2022-12-01T05:23:27;1.30;99.90
45619;DHT22;31343;47.520;19.144;2022-12-01T05:25:54;1.00;99.90
45619;DHT22;31343;47.520;19.144;2022-12-01T05:28:21;0.90;99.90
45619;DHT22;31343;47.520;19.144;2022-12-01T05:30:47;1.10;99.90
45619;DHT22;31343;47.520;19.144;2022-12-01T05:33:13;1.10;99.90
45619;DHT22;31343;47.520;19.144;2022-12-01T05:35:39;1.20;99.90
45619;DHT22;31343;47.520;19.144;2022-12-01T05:38:05;1.10;99.90
45619;DHT22;31343;47.520;19.144;2022-12-01T05:40:31;1.20;99.90
45619;DHT22;31343;47.520;19.144;2022-12-01T05:42:57;1.10;99.90
45619;DHT22;31343;47.520;19.144;2022-12-01T05:45:23;1.20;99.90
45619;DHT22;31343;47.520;19.144;2022-12-01T05:47:52;1.10;99.90
45619;DHT22;31343;47.520;19.144;2022-12-01T05:50:18;1.10;99.90
45619;DHT22;31343;47.520;19.144;2022-12-01T05:52:44;1.00;99.90
45619;DHT22;31343;47.520;19.144;2022-12-01T05:55:09;1.00;99.90
45619;DHT22;31343;47.520;19.144;2022-12-01T05:57:35;1.00;99.90
45619;DHT22;31343;47.520;19.144;2022-12-01T06:00:01;0.90;99.90
45619;DHT22;31343;47.520;19.144;2022-12-01T06:02:27;1.00;99.90
45619;DHT22;31343;47.520;19.144;2022-12-01T06:04:52;0.90;99.90
45619;DHT22;31343;47.520;19.144;2022-12-01T06:07:19;0.80;99.90
45619;DHT22;31343;47.520;19.144;2022-12-01T06:09:44;0.80;99.90
45619;DHT22;31343;47.520;19.144;2022-12-01T06:12:11;0.70;99.90
45619;DHT22;31343;47.520;19.144;2022-12-01T06:14:38;0.70;99.90
45619;DHT22;31343;47.520;19.144;2022-12-01T06:17:04;0.80;99.90
45619;DHT22;31343;47.520;19.144;2022-12-01T06:19:29;0.90;99.90
45619;DHT22;31343;47.520;19.144;2022-12-01T06:21:56;0.90;99.90
45619;DHT22;31343;47.520;19.144;2022-12-01T06:24:22;0.90;99.90
45619;DHT22;31343;47.520;19.144;2022-12-01T06:26:49;0.90;99.90
45619;DHT22;31343;47.520;19.144;2022-12-01T06:29:14;0.90;99.90
45619;DHT22;31343;47.520;19.144;2022-12-01T06:31:40;0.90;99.90
45619;DHT22;31343;47.520;19.144;2022-12-01T06:34:06;0.80;99.90
45619;DHT22;31343;47.520;19.144;2022-12-01T06:36:32;0.90;99.90
45619;DHT22;31343;47.520;19.144;2022-12-01T06:38:57;0.80;99.90
45619;DHT22;31343;47.520;19.144;2022-12-01T06:41:23;1.00;99.90
45619;DHT22;31343;47.520;19.144;2022-12-01T06:43:49;1.00;99.90
45619;DHT22;31343;47.520;19.144;2022-12-01T06:46:14;1.10;99.90
45619;DHT22;31343;47.520;19.144;2022-12-01T06:48:40;1.50;99.90
45619;DHT22;31343;47.520;19.144;2022-12-01T06:51:06;1.70;99.90
45619;DHT22;31343;47.520;19.144;2022-12-01T06:53:31;1.90;99.90
45619;DHT22;31343;47.520;19.144;2022-12-01T06:56:01;1.90;99.90
45619;DHT22;31343;47.520;19.144;2022-12-01T06:58:27;2.00;99.90
45619;DHT22;31343;47.520;19.144;2022-12-01T07:00:52;2.20;99.90
45619;DHT22;31343;47.520;19.144;2022-12-01T07:03:18;2.30;99.90
45619;DHT22;31343;47.520;19.144;2022-12-01T07:05:54;2.20;99.90
45619;DHT22;31343;47.520;19.144;2022-12-01T07:08:21;2.20;99.90
45619;DHT22;31343;47.520;19.144;2022-12-01T07:10:58;2.10;99.90
45619;DHT22;31343;47.520;19.144;2022-12-01T07:13:24;2.30;99.90
45619;DHT22;31343;47.520;19.144;2022-12-01T07:15:50;2.30;99.90
45619;DHT22;31343;47.520;19.144;2022-12-01T07:18:15;2.30;99.90
45619;DHT22;31343;47.520;19.144;2022-12-01T07:20:41;2.50;99.90
45619;DHT22;31343;47.520;19.144;2022-12-01T07:23:07;2.60;99.90
45619;DHT22;31343;47.520;19.144;2022-12-01T07:25:34;2.60;99.90
45619;DHT22;31343;47.520;19.144;2022-12-01T07:27:59;2.50;99.90
45619;DHT22;31343;47.520;19.144;2022-12-01T07:30:25;2.60;99.90
45619;DHT22;31343;47.520;19.144;2022-12-01T07:32:50;2.60;99.90
45619;DHT22;31343;47.520;19.144;2022-12-01T07:35:16;2.60;99.90
45619;DHT22;31343;47.520;19.144;2022-12-01T07:37:42;2.70;99.90
45619;DHT22;31343;47.520;19.144;2022-12-01T07:40:08;2.90;99.90
45619;DHT22;31343;47.520;19.144;2022-12-01T07:42:34;3.00;99.90
45619;DHT22;31343;47.520;19.144;2022-12-01T07:45:00;3.10;99.90
45619;DHT22;31343;47.520;19.144;2022-12-01T07:47:26;3.10;99.90
45619;DHT22;31343;47.520;19.144;2022-12-01T07:49:52;3.40;99.90
45619;DHT22;31343;47.520;19.144;2022-12-01T07:52:17;3.60;99.90
45619;DHT22;31343;47.520;19.144;2022-12-01T07:54:44;3.60;99.90
45619;DHT22;31343;47.520;19.144;2022-12-01T07:57:10;3.80;99.90
45619;DHT22;31343;47.520;19.144;2022-12-01T07:59:38;3.70;99.90
45619;DHT22;31343;47.520;19.144;2022-12-01T08:02:04;3.70;99.90
45619;DHT22;31343;47.520;19.144;2022-12-01T08:04:30;4.00;99.90
45619;DHT22;31343;47.520;19.144;2022-12-01T08:06:56;4.00;99.90
45619;DHT22;31343;47.520;19.144;2022-12-01T08:09:21;3.90;99.90
45619;DHT22;31343;47.520;19.144;2022-12-01T08:11:48;3.80;99.90
45619;DHT22;31343;47.520;19.144;2022-12-01T08:14:13;4.10;99.90
45619;DHT22;31343;47.520;19.144;2022-12-01T08:16:39;4.30;99.90
45619;DHT22;31343;47.520;19.144;2022-12-01T08:19:05;4.40;99.90
45619;DHT22;31343;47.520;19.144;2022-12-01T08:21:30;4.50;99.90
45619;DHT22;31343;47.520;19.144;2022-12-01T08:23:57;4.50;99.90
45619;DHT22;31343;47.520;19.144;2022-12-01T08:26:23;4.60;99.90
45619;DHT22;31343;47.520;19.144;2022-12-01T08:28:49;4.70;99.90
45619;DHT22;31343;47.520;19.144;2022-12-01T08:31:27;4.70;99.90
45619;DHT22;31343;47.520;19.144;2022-12-01T08:33:54;4.80;99.90
45619;DHT22;31343;47.520;19.144;2022-12-01T08:36:20;4.80;99.90
45619;DHT22;31343;47.520;19.144;2022-12-01T08:38:48;4.80;99.90
45619;DHT22;31343;47.520;19.144;2022-12-01T08:41:15;4.80;99.90
45619;DHT22;31343;47.520;19.144;2022-12-01T08:43:42;4.80;99.90
45619;DHT22;31343;47.520;19.144;2022-12-01T08:46:10;5.00;99.90
45619;DHT22;31343;47.520;19.144;2022-12-01T08:48:36;5.20;99.90
45619;DHT22;31343;47.520;19.144;2022-12-01T08:51:12;5.30;99.90
45619;DHT22;31343;47.520;19.144;2022-12-01T08:53:41;5.50;99.90
45619;DHT22;31343;47.520;19.144;2022-12-01T08:56:29;5.50;99.90
45619;DHT22;31343;47.520;19.144;2022-12-01T08:58:55;5.60;99.90
45619;DHT22;31343;47.520;19.144;2022-12-01T09:01:21;5.60;99.90
45619;DHT22;31343;47.520;19.144;2022-12-01T09:03:47;5.70;99.90
45619;DHT22;31343;47.520;19.144;2022-12-01T09:06:18;5.80;99.90
45619;DHT22;31343;47.520;19.144;2022-12-01T09:08:46;5.90;99.90
45619;DHT22;31343;47.520;19.144;2022-12-01T09:11:17;6.00;99.90
45619;DHT22;31343;47.520;19.144;2022-12-01T09:13:44;6.20;99.90
45619;DHT22;31343;47.520;19.144;2022-12-01T09:16:13;6.30;99.90
45619;DHT22;31343;47.520;19.144;2022-12-01T09:18:39;6.40;99.90
45619;DHT22;31343;47.520;19.144;2022-12-01T09:21:17;6.40;99.90
45619;DHT22;31343;47.520;19.144;2022-12-01T09:23:43;6.30;99.90
45619;DHT22;31343;47.520;19.144;2022-12-01T09:26:09;6.40;99.90
45619;DHT22;31343;47.520;19.144;2022-12-01T09:28:35;6.40;99.90
45619;DHT22;31343;47.520;19.144;2022-12-01T09:31:09;6.70;99.90
45619;DHT22;31343;47.520;19.144;2022-12-01T09:33:35;6.80;99.90
45619;DHT22;31343;47.520;19.144;2022-12-01T09:36:02;6.70;99.90
45619;DHT22;31343;47.520;19.144;2022-12-01T09:38:29;6.70;99.90
45619;DHT22;31343;47.520;19.144;2022-12-01T09:40:55;6.80;99.90
45619;DHT22;31343;47.520;19.144;2022-12-01T09:43:26;6.70;99.90
45619;DHT22;31343;47.520;19.144;2022-12-01T09:46:02;6.90;99.90
45619;DHT22;31343;47.520;19.144;2022-12-01T09:48:37;7.00;99.90
45619;DHT22;31343;47.520;19.144;2022-12-01T09:51:13;6.90;99.90
45619;DHT22;31343;47.520;19.144;2022-12-01T09:53:40;6.90;99.90
45619;DHT22;31343;47.520;19.144;2022-12-01T09:58:49;7.00;99.90
45619;DHT22;31343;47.520;19.144;2022-12-01T10:01:18;7.10;99.90
45619;DHT22;31343;47.520;19.144;2022-12-01T10:03:53;7.10;99.90
45619;DHT22;31343;47.520;19.144;2022-12-01T10:06:27;7.20;99.90
45619;DHT22;31343;47.520;19.144;2022-12-01T10:11:41;7.40;99.90
45619;DHT22;31343;47.520;19.144;2022-12-01T10:14:16;7.40;99.90
45619;DHT22;31343;47.520;19.144;2022-12-01T10:17:22;7.50;99.90
45619;DHT22;31343;47.520;19.144;2022-12-01T10:30:06;8.10;99.90
45619;DHT22;31343;47.520;19.144;2022-12-01T10:35:23;8.10;99.90
45619;DHT22;31343;47.520;19.144;2022-12-01T10:37:57;8.20;99.90
45619;DHT22;31343;47.520;19.144;2022-12-01T10:40:24;8.20;99.90
45619;DHT22;31343;47.520;19.144;2022-12-01T10:42:51;8.30;99.90
45619;DHT22;31343;47.520;19.144;2022-12-01T10:45:22;8.30;99.90
45619;DHT22;31343;47.520;19.144;2022-12-01T10:48:23;8.30;99.90
45619;DHT22;31343;47.520;19.144;2022-12-01T10:50:53;8.40;99.90
45619;DHT22;31343;47.520;19.144;2022-12-01T10:56:12;8.50;99.90
45619;DHT22;31343;47.520;19.144;2022-12-01T10:59:02;8.60;99.90
45619;DHT22;31343;47.520;19.144;2022-12-01T11:01:33;8.70;99.90
45619;DHT22;31343;47.520;19.144;2022-12-01T11:04:20;8.70;99.70
45619;DHT22;31343;47.520;19.144;2022-12-01T11:06:49;8.40;99.90
45619;DHT22;31343;47.520;19.144;2022-12-01T11:09:24;8.60;99.90
45619;DHT22;31343;47.520;19.144;2022-12-01T11:12:01;8.90;99.90
45619;DHT22;31343;47.520;19.144;2022-12-01T11:14:42;9.20;99.90
45619;DHT22;31343;47.520;19.144;2022-12-01T11:19:50;10.00;99.00
45619;DHT22;31343;47.520;19.144;2022-12-01T11:25:03;10.60;97.20
45619;DHT22;31343;47.520;19.144;2022-12-01T11:27:51;10.70;97.40
45619;DHT22;31343;47.520;19.144;2022-12-01T11:30:26;10.70;97.50
45619;DHT22;31343;47.520;19.144;2022-12-01T11:32:58;11.10;96.60
45619;DHT22;31343;47.520;19.144;2022-12-01T11:35:28;11.00;96.20
45619;DHT22;31343;47.520;19.144;2022-12-01T11:37:57;11.00;96.80
45619;DHT22;31343;47.520;19.144;2022-12-01T11:40:44;11.20;96.20
45619;DHT22;31343;47.520;19.144;2022-12-01T11:43:33;11.30;96.00
45619;DHT22;31343;47.520;19.144;2022-12-01T11:46:04;11.40;96.00
45619;DHT22;31343;47.520;19.144;2022-12-01T11:48:32;11.60;95.10
45619;DHT22;31343;47.520;19.144;2022-12-01T11:53:34;11.70;94.70
45619;DHT22;31343;47.520;19.144;2022-12-01T11:56:22;11.90;95.50
45619;DHT22;31343;47.520;19.144;2022-12-01T11:59:10;11.70;94.50
45619;DHT22;31343;47.520;19.144;2022-12-01T12:13:08;12.40;93.70
45619;DHT22;31343;47.520;19.144;2022-12-01T12:16:00;12.70;93.40
45619;DHT22;31343;47.520;19.144;2022-12-01T12:40:53;13.80;90.00
45619;DHT22;31343;47.520;19.144;2022-12-01T12:51:55;11.40;92.10
45619;DHT22;31343;47.520;19.144;2022-12-01T12:57:06;10.70;92.90
45619;DHT22;31343;47.520;19.144;2022-12-01T12:59:48;11.00;93.20
45619;DHT22;31343;47.520;19.144;2022-12-01T13:02:45;11.00;93.20
45619;DHT22;31343;47.520;19.144;2022-12-01T13:08:15;10.60;93.60
45619;DHT22;31343;47.520;19.144;2022-12-01T13:11:33;9.80;94.30
45619;DHT22;31343;47.520;19.144;2022-12-01T13:14:27;9.40;95.20
45619;DHT22;31343;47.520;19.144;2022-12-01T13:16:58;9.70;95.40
45619;DHT22;31343;47.520;19.144;2022-12-01T13:19:34;9.80;94.90
45619;DHT22;31343;47.520;19.144;2022-12-01T13:22:01;9.40;95.50
45619;DHT22;31343;47.520;19.144;2022-12-01T13:24:28;9.40;96.00
45619;DHT22;31343;47.520;19.144;2022-12-01T13:27:03;9.30;96.10
45619;DHT22;31343;47.520;19.144;2022-12-01T13:29:33;9.20;96.10
45619;DHT22;31343;47.520;19.144;2022-12-01T13:32:01;9.10;96.30
45619;DHT22;31343;47.520;19.144;2022-12-01T13:34:39;8.90;96.50
45619;DHT22;31343;47.520;19.144;2022-12-01T13:37:08;8.60;96.60
45619;DHT22;31343;47.520;19.144;2022-12-01T13:39:37;8.70;97.00
45619;DHT22;31343;47.520;19.144;2022-12-01T13:42:07;8.50;97.20
45619;DHT22;31343;47.520;19.144;2022-12-01T13:44:41;8.60;97.50
45619;DHT22;31343;47.520;19.144;2022-12-01T14:02:28;8.30;98.20
45619;DHT22;31343;47.520;19.144;2022-12-01T14:04:54;8.40;98.60
45619;DHT22;31343;47.520;19.144;2022-12-01T14:07:40;8.30;98.30
45619;DHT22;31343;47.520;19.144;2022-12-01T14:10:22;8.20;98.60
45619;DHT22;31343;47.520;19.144;2022-12-01T14:12:49;8.10;98.80
45619;DHT22;31343;47.520;19.144;2022-12-01T14:15:38;8.00;99.20
45619;DHT22;31343;47.520;19.144;2022-12-01T14:18:35;7.90;99.70
45619;DHT22;31343;47.520;19.144;2022-12-01T14:21:05;7.90;99.40
45619;DHT22;31343;47.520;19.144;2022-12-01T14:23:37;8.00;99.20
45619;DHT22;31343;47.520;19.144;2022-12-01T14:26:18;7.90;99.50
45619;DHT22;31343;47.520;19.144;2022-12-01T14:31:22;7.80;99.70
45619;DHT22;31343;47.520;19.144;2022-12-01T14:33:51;7.80;99.90
45619;DHT22;31343;47.520;19.144;2022-12-01T14:44:00;7.60;99.90
45619;DHT22;31343;47.520;19.144;2022-12-01T14:46:42;7.60;99.90
45619;DHT22;31343;47.520;19.144;2022-12-01T14:49:13;7.50;99.90
45619;DHT22;31343;47.520;19.144;2022-12-01T14:51:43;7.40;99.90
45619;DHT22;31343;47.520;19.144;2022-12-01T14:54:24;7.40;99.90
45619;DHT22;31343;47.520;19.144;2022-12-01T14:56:52;7.40;99.90
45619;DHT22;31343;47.520;19.144;2022-12-01T14:59:24;7.30;99.90
45619;DHT22;31343;47.520;19.144;2022-12-01T15:01:54;7.30;99.90
45619;DHT22;31343;47.520;19.144;2022-12-01T15:04:20;7.20;99.90
45619;DHT22;31343;47.520;19.144;2022-12-01T15:06:54;7.20;99.90
45619;DHT22;31343;47.520;19.144;2022-12-01T15:09:22;7.20;99.90
45619;DHT22;31343;47.520;19.144;2022-12-01T15:11:54;7.10;99.90
45619;DHT22;31343;47.520;19.144;2022-12-01T15:14:32;7.10;99.90
45619;DHT22;31343;47.520;19.144;2022-12-01T15:16:58;7.00;99.90
45619;DHT22;31343;47.520;19.144;2022-12-01T15:19:36;7.00;99.90
45619;DHT22;31343;47.520;19.144;2022-12-01T15:22:14;7.00;99.90
45619;DHT22;31343;47.520;19.144;2022-12-01T15:24:41;7.00;99.90
45619;DHT22;31343;47.520;19.144;2022-12-01T15:27:28;6.90;99.90
45619;DHT22;31343;47.520;19.144;2022-12-01T15:29:55;6.70;99.90
45619;DHT22;31343;47.520;19.144;2022-12-01T15:32:23;6.70;99.90
45619;DHT22;31343;47.520;19.144;2022-12-01T15:34:53;6.70;99.90
45619;DHT22;31343;47.520;19.144;2022-12-01T15:37:23;6.70;99.90
45619;DHT22;31343;47.520;19.144;2022-12-01T15:39:56;6.70;99.90
45619;DHT22;31343;47.520;19.144;2022-12-01T15:42:29;6.60;99.90
45619;DHT22;31343;47.520;19.144;2022-12-01T15:45:19;6.60;99.90
45619;DHT22;31343;47.520;19.144;2022-12-01T15:47:50;6.60;99.90
45619;DHT22;31343;47.520;19.144;2022-12-01T15:50:32;6.60;99.90
45619;DHT22;31343;47.520;19.144;2022-12-01T15:53:03;6.60;99.90
45619;DHT22;31343;47.520;19.144;2022-12-01T15:55:32;6.50;99.90
45619;DHT22;31343;47.520;19.144;2022-12-01T15:57:59;6.50;99.90
45619;DHT22;31343;47.520;19.144;2022-12-01T16:00:25;6.40;99.90
45619;DHT22;31343;47.520;19.144;2022-12-01T16:02:55;6.30;99.90
45619;DHT22;31343;47.520;19.144;2022-12-01T16:07:53;6.20;99.90
45619;DHT22;31343;47.520;19.144;2022-12-01T16:10:26;6.20;99.90
45619;DHT22;31343;47.520;19.144;2022-12-01T16:12:52;6.20;99.90
45619;DHT22;31343;47.520;19.144;2022-12-01T16:15:19;6.10;99.90
45619;DHT22;31343;47.520;19.144;2022-12-01T16:17:49;6.10;99.90
45619;DHT22;31343;47.520;19.144;2022-12-01T16:20:24;6.00;99.90
45619;DHT22;31343;47.520;19.144;2022-12-01T16:23:09;6.00;99.90
45619;DHT22;31343;47.520;19.144;2022-12-01T16:25:38;5.90;99.90
45619;DHT22;31343;47.520;19.144;2022-12-01T16:28:05;5.80;99.90
45619;DHT22;31343;47.520;19.144;2022-12-01T16:30:38;5.70;99.90
45619;DHT22;31343;47.520;19.144;2022-12-01T16:33:12;5.70;99.90
45619;DHT22;31343;47.520;19.144;2022-12-01T16:35:39;5.70;99.90
45619;DHT22;31343;47.520;19.144;2022-12-01T16:38:16;5.70;99.90
45619;DHT22;31343;47.520;19.144;2022-12-01T16:40:46;5.60;99.90
45619;DHT22;31343;47.520;19.144;2022-12-01T16:43:17;5.60;99.90
45619;DHT22;31343;47.520;19.144;2022-12-01T16:45:45;5.60;99.90
45619;DHT22;31343;47.520;19.144;2022-12-01T16:48:14;5.50;99.90
45619;DHT22;31343;47.520;19.144;2022-12-01T16:50:44;5.50;99.90
45619;DHT22;31343;47.520;19.144;2022-12-01T16:53:11;5.50;99.90
45619;DHT22;31343;47.520;19.144;2022-12-01T16:55:54;5.50;99.90
45619;DHT22;31343;47.520;19.144;2022-12-01T16:58:20;5.50;99.90
45619;DHT22;31343;47.520;19.144;2022-12-01T17:00:46;5.40;99.90
45619;DHT22;31343;47.520;19.144;2022-12-01T17:03:24;5.30;99.90
45619;DHT22;31343;47.520;19.144;2022-12-01T17:05:50;5.30;99.90
45619;DHT22;31343;47.520;19.144;2022-12-01T17:08:17;5.30;99.90
45619;DHT22;31343;47.520;19.144;2022-12-01T17:10:44;5.40;99.90
45619;DHT22;31343;47.520;19.144;2022-12-01T17:13:11;5.30;99.90
45619;DHT22;31343;47.520;19.144;2022-12-01T17:15:44;5.20;99.90
45619;DHT22;31343;47.520;19.144;2022-12-01T17:18:11;4.90;99.90
45619;DHT22;31343;47.520;19.144;2022-12-01T17:20:37;4.90;99.90
45619;DHT22;31343;47.520;19.144;2022-12-01T17:23:03;4.90;99.90
45619;DHT22;31343;47.520;19.144;2022-12-01T17:25:30;4.90;99.90
45619;DHT22;31343;47.520;19.144;2022-12-01T17:27:56;4.90;99.90
45619;DHT22;31343;47.520;19.144;2022-12-01T17:30:21;4.90;99.90
45619;DHT22;31343;47.520;19.144;2022-12-01T17:32:47;4.80;99.90
45619;DHT22;31343;47.520;19.144;2022-12-01T17:35:13;4.70;99.90
45619;DHT22;31343;47.520;19.144;2022-12-01T17:37:39;4.80;99.90
45619;DHT22;31343;47.520;19.144;2022-12-01T17:40:05;4.80;99.90
45619;DHT22;31343;47.520;19.144;2022-12-01T17:42:32;4.70;99.90
45619;DHT22;31343;47.520;19.144;2022-12-01T17:44:59;4.70;99.90
45619;DHT22;31343;47.520;19.144;2022-12-01T17:47:25;4.60;99.90
45619;DHT22;31343;47.520;19.144;2022-12-01T17:49:52;4.50;99.90
45619;DHT22;31343;47.520;19.144;2022-12-01T17:52:18;4.60;99.90
45619;DHT22;31343;47.520;19.144;2022-12-01T17:54:44;4.60;99.90
45619;DHT22;31343;47.520;19.144;2022-12-01T17:57:10;4.60;99.90
45619;DHT22;31343;47.520;19.144;2022-12-01T17:59:37;4.50;99.90
45619;DHT22;31343;47.520;19.144;2022-12-01T18:02:05;4.40;99.90